VTPM

Mae Sot Airport

Thailand
TAF VTPM 190500Z 1906/2006 32005KT 9999 FEW030 TEMPO 1908/1915 VRB15G25KT 5000 TSRA FEW025CB BKN030
Issued Valid From Valid To
Oct-19 @ 05:00 UTC
(4 hours ago)
Oct-19 @ 06:00 UTC
(3 hours ago)
Oct-20 @ 06:00 UTC
(in 21 hours)
Oct-19 @ 06:00 to Oct-20 @ 06:00
TAF VTPM 190500Z 1906/2006 32005KT 9999 FEW030
Wind Visibility Clouds
320° at 5 knots 10,000+ meters
  • Few at 3,000' AGL
Temporary Oct-19 @ 08:00 to Oct-19 @ 15:00
TEMPO 1908/1915 VRB15G25KT 5000 TSRA FEW025CB BKN030
Wind Visibility Clouds Conditions
Variable at 15 knots
 Gusting to 25 knots
5,005 meters
  • Few at 2,500' AGL
  • Broken at 3,000' AGL
  • Thunderstorm
  • Rain
TAF VTPM 190500Z 1906/2006 32005KT 9999 FEW030 TEMPO 1908/1915 VRB15G25KT 5000 TSRA FEW025CB BKN030
Issued Oct-19 @ 05:00 UTC
(4 hours ago)
Valid From Oct-19 @ 06:00 UTC
(3 hours ago)
Valid To Oct-20 @ 06:00 UTC
(in 21 hours)
Oct-19 @ 06:00 - Oct-20 @ 06:00
Wind Visibility
320° at 5 knots 10,000+ meters
Clouds
  • Few at 3,000' AGL
Temporary Oct-19 @ 08:00 - Oct-19 @ 15:00
Wind Visibility
Variable at 15 knots
 Gusting to 25 knots
5,005 meters
Clouds
  • Few at 2,500' AGL
  • Broken at 3,000' AGL
Conditions
  • Thunderstorm
  • Rain